Time;durP1;ratioP1;P1;durP2;ratioP2;P2;SDS_P1;SDS_P2;PMS_P1;PMS_P2;Temp;Humidity;BMP_temperature;BMP_pressure;BME280_temperature;BME280_humidity;BME280_pressure;Samples;Min_cycle;Max_cycle;Signal;HPM_P1;HPM_P2
2022/03/09 00:00:07;;;;;;;18.55;9.90;;;2.10;93.90;;;;;;5024456;28;20021;-86
2022/03/09 00:02:33;;;;;;;21.73;10.18;;;2.10;94.30;;;;;;5040522;28;20030;-89
2022/03/09 00:04:59;;;;;;;20.90;11.25;;;2.10;94.50;;;;;;5037187;28;20041;-87
2022/03/09 00:07:27;;;;;;;21.08;10.63;;;2.00;95.00;;;;;;5031644;28;20049;-88
2022/03/09 00:09:54;;;;;;;21.67;10.75;;;2.00;95.50;;;;;;5032401;28;20037;-87
2022/03/09 00:12:20;;;;;;;21.63;10.50;;;2.00;95.50;;;;;;5032213;28;20034;-88
2022/03/09 00:14:46;;;;;;;23.00;11.20;;;1.90;95.80;;;;;;5031473;28;20032;-88
2022/03/09 00:17:13;;;;;;;25.63;11.23;;;1.90;96.00;;;;;;5033098;28;20033;-88
2022/03/09 00:19:39;;;;;;;28.25;11.90;;;1.90;96.20;;;;;;5037415;28;20025;-88
2022/03/09 00:22:05;;;;;;;22.80;10.88;;;1.80;96.50;;;;;;5036362;28;20121;-85
2022/03/09 00:24:32;;;;;;;23.58;10.70;;;1.80;96.30;;;;;;5030094;28;20042;-88
2022/03/09 00:27:00;;;;;;;21.35;11.25;;;1.80;96.60;;;;;;5034987;28;20097;-87
2022/03/09 00:29:27;;;;;;;23.00;10.77;;;1.80;96.50;;;;;;5022640;28;20026;-89
2022/03/09 00:31:53;;;;;;;20.33;10.57;;;1.70;96.60;;;;;;5019977;28;20164;-88
2022/03/09 00:34:19;;;;;;;27.10;11.40;;;1.80;96.80;;;;;;5037465;28;20033;-87
2022/03/09 00:36:45;;;;;;;19.15;10.73;;;1.80;96.80;;;;;;5040215;28;20026;-88
2022/03/09 00:39:11;;;;;;;24.65;11.15;;;1.80;96.80;;;;;;5039946;28;20014;-87
2022/03/09 00:41:37;;;;;;;21.27;10.98;;;1.80;96.90;;;;;;5040031;28;20026;-87
2022/03/09 00:44:03;;;;;;;20.20;10.10;;;1.80;97.00;;;;;;5040008;28;20049;-88
2022/03/09 00:46:30;;;;;;;23.50;10.68;;;1.80;97.10;;;;;;5018025;28;20525;-86
2022/03/09 00:48:56;;;;;;;21.90;11.40;;;1.80;97.30;;;;;;5033045;28;20022;-88
2022/03/09 00:51:22;;;;;;;24.10;10.48;;;1.80;97.50;;;;;;5031103;28;20088;-88
2022/03/09 00:53:48;;;;;;;20.65;10.70;;;1.80;97.80;;;;;;5030624;28;20029;-87
2022/03/09 00:56:14;;;;;;;21.80;11.88;;;1.70;97.90;;;;;;5034610;28;20034;-88
2022/03/09 00:58:40;;;;;;;23.00;11.10;;;1.70;98.00;;;;;;5037680;28;20018;-87
2022/03/09 01:01:06;;;;;;;26.25;11.13;;;1.70;98.00;;;;;;5036408;28;20022;-86
2022/03/09 01:03:33;;;;;;;22.52;11.77;;;1.70;98.20;;;;;;5029218;28;20461;-87
2022/03/09 01:06:01;;;;;;;27.92;10.85;;;1.70;98.20;;;;;;5030221;28;20080;-88
2022/03/09 01:08:27;;;;;;;22.10;11.00;;;1.70;98.10;;;;;;5034853;28;20042;-86
2022/03/09 01:10:54;;;;;;;21.25;11.20;;;1.70;98.00;;;;;;5028865;28;20038;-86
2022/03/09 01:13:21;;;;;;;23.27;11.90;;;1.70;98.00;;;;;;5025980;28;20077;-87
2022/03/09 01:15:47;;;;;;;25.38;11.50;;;1.70;97.70;;;;;;5024540;28;20053;-86
2022/03/09 01:18:13;;;;;;;23.65;12.38;;;1.70;97.40;;;;;;5025909;28;20031;-85
2022/03/09 01:20:39;;;;;;;22.45;10.43;;;1.70;97.30;;;;;;5021686;28;20100;-86
2022/03/09 01:23:05;;;;;;;19.75;10.48;;;1.70;97.00;;;;;;5021660;28;20038;-87
2022/03/09 01:25:31;;;;;;;24.08;11.05;;;1.80;97.20;;;;;;5009089;28;20023;-85
2022/03/09 01:27:57;;;;;;;21.13;11.27;;;1.70;97.60;;;;;;5028726;28;20026;-85
2022/03/09 01:30:23;;;;;;;19.80;11.02;;;1.80;97.90;;;;;;5038654;28;20042;-84
2022/03/09 01:32:49;;;;;;;22.67;11.00;;;1.70;97.50;;;;;;5037441;28;20025;-83
2022/03/09 01:35:15;;;;;;;22.50;10.90;;;1.70;97.70;;;;;;5038087;28;20032;-84
2022/03/09 01:37:41;;;;;;;20.77;9.98;;;1.70;97.70;;;;;;5037120;28;20030;-85
2022/03/09 01:40:08;;;;;;;20.70;10.40;;;1.70;97.90;;;;;;5037449;28;20022;-84
2022/03/09 01:42:35;;;;;;;26.73;11.25;;;1.70;98.10;;;;;;5038450;28;20126;-86
2022/03/09 01:45:05;;;;;;;19.35;10.88;;;1.70;98.10;;;;;;5037912;28;20033;-84
2022/03/09 01:47:31;;;;;;;22.67;11.13;;;1.70;98.50;;;;;;5030044;28;20011;-84
2022/03/09 01:49:57;;;;;;;21.52;10.90;;;1.70;98.30;;;;;;5037733;28;20018;-83
2022/03/09 01:52:23;;;;;;;21.60;10.98;;;1.70;97.80;;;;;;5035649;28;20014;-85
2022/03/09 01:54:51;;;;;;;19.98;10.95;;;1.80;97.60;;;;;;5034769;28;20043;-87
2022/03/09 01:57:17;;;;;;;25.58;11.30;;;1.80;97.50;;;;;;5033209;28;20028;-87
2022/03/09 01:59:43;;;;;;;22.23;10.93;;;1.80;97.40;;;;;;5026655;28;20026;-87
2022/03/09 02:02:09;;;;;;;18.88;10.43;;;1.80;97.00;;;;;;5025677;28;20034;-84
2022/03/09 02:04:35;;;;;;;21.02;10.73;;;1.80;96.90;;;;;;5034810;28;20026;-86
2022/03/09 02:07:01;;;;;;;19.92;10.63;;;1.80;96.70;;;;;;5029844;28;20048;-87
2022/03/09 02:09:44;;;;;;;22.65;11.63;;;1.80;96.80;;;;;;5025091;28;20037;-88
2022/03/09 02:12:14;;;;;;;23.27;10.55;;;1.80;96.80;;;;;;5026824;28;20057;-86
2022/03/09 02:14:49;;;;;;;19.80;11.05;;;1.80;96.90;;;;;;5026988;28;20030;-86
2022/03/09 02:17:19;;;;;;;;;;;1.70;96.90;;;;;;5027677;28;20065;-86
2022/03/09 02:19:47;;;;;;;24.40;11.00;;;1.70;97.00;;;;;;5027109;28;19957;-86
2022/03/09 02:22:19;;;;;;;20.15;11.20;;;1.70;97.10;;;;;;5026408;28;20111;-88
2022/03/09 02:24:46;;;;;;;26.52;11.55;;;1.70;97.10;;;;;;5026667;28;20022;-87
2022/03/09 02:27:12;;;;;;;21.20;11.25;;;1.70;97.40;;;;;;5008802;28;20060;-87
2022/03/09 02:29:38;;;;;;;27.98;11.93;;;1.70;98.10;;;;;;5027373;28;20093;-86
2022/03/09 02:32:05;;;;;;;22.75;12.05;;;1.70;98.50;;;;;;5034518;28;20037;-88
2022/03/09 02:34:31;;;;;;;25.55;11.95;;;1.60;98.90;;;;;;5011786;28;20033;-86
2022/03/09 02:36:57;;;;;;;24.98;11.55;;;1.60;99.20;;;;;;5027152;28;20022;-85
2022/03/09 02:39:24;;;;;;;30.52;12.05;;;1.60;99.30;;;;;;5026221;28;20129;-86
2022/03/09 02:41:50;;;;;;;25.50;12.63;;;1.50;99.50;;;;;;5024671;28;20014;-85
2022/03/09 02:44:16;;;;;;;23.48;12.25;;;1.60;99.60;;;;;;5027086;28;20052;-88
2022/03/09 02:46:41;;;;;;;24.33;12.20;;;1.50;99.50;;;;;;5027219;28;20022;-85
2022/03/09 02:49:07;;;;;;;25.73;12.93;;;1.50;99.50;;;;;;5036844;28;20029;-84
2022/03/09 02:51:33;;;;;;;24.23;12.30;;;1.50;99.60;;;;;;5037556;28;20093;-84
2022/03/09 02:53:59;;;;;;;25.70;12.52;;;1.40;99.70;;;;;;5035353;28;20010;-84
2022/03/09 02:56:25;;;;;;;24.38;12.32;;;1.40;99.80;;;;;;5037581;28;20038;-82
2022/03/09 02:58:51;;;;;;;25.75;12.48;;;1.40;99.90;;;;;;5037745;28;20018;-82
2022/03/09 03:01:17;;;;;;;27.40;14.02;;;1.40;99.90;;;;;;5037359;28;20022;-86
2022/03/09 03:03:44;;;;;;;28.52;13.00;;;1.40;99.90;;;;;;5039687;28;20053;-87
2022/03/09 03:06:11;;;;;;;24.27;12.57;;;1.30;99.90;;;;;;5039619;28;20073;-85
2022/03/09 03:08:38;;;;;;;25.80;13.23;;;1.30;99.90;;;;;;5039200;28;20040;-85
2022/03/09 03:11:08;;;;;;;26.67;13.30;;;1.30;99.90;;;;;;5038280;28;20030;-83
2022/03/09 03:13:35;;;;;;;27.35;12.85;;;1.20;99.90;;;;;;5036976;28;20065;-85
2022/03/09 03:16:01;;;;;;;24.90;13.35;;;1.20;99.90;;;;;;5038546;28;20010;-84
2022/03/09 03:18:27;;;;;;;26.40;13.13;;;1.20;99.90;;;;;;5035829;28;20025;-87
2022/03/09 03:20:56;;;;;;;25.17;12.30;;;1.20;99.90;;;;;;5031868;28;20041;-88
2022/03/09 03:23:23;;;;;;;29.73;13.52;;;1.10;99.90;;;;;;5033412;28;20118;-85
2022/03/09 03:25:54;;;;;;;28.02;13.77;;;1.10;99.90;;;;;;5034586;28;20022;-86
2022/03/09 03:28:20;;;;;;;27.58;13.68;;;1.10;99.90;;;;;;5035318;28;20073;-83
2022/03/09 03:30:47;;;;;;;32.05;14.00;;;1.10;99.90;;;;;;5040972;28;20014;-86
2022/03/09 03:33:15;;;;;;;28.48;13.55;;;1.00;99.90;;;;;;5037658;28;20026;-86
2022/03/09 03:35:41;;;;;;;26.70;12.98;;;1.00;99.90;;;;;;5036820;28;20029;-84
2022/03/09 03:38:08;;;;;;;27.52;13.50;;;0.90;99.90;;;;;;5034695;28;20034;-86
2022/03/09 03:40:34;;;;;;;28.58;13.55;;;1.00;99.90;;;;;;5037713;28;20090;-85
2022/03/09 03:42:59;;;;;;;26.10;13.20;;;1.00;99.90;;;;;;5036416;28;20034;-87
2022/03/09 03:45:25;;;;;;;26.65;12.70;;;1.00;99.90;;;;;;5036420;28;20033;-85
2022/03/09 03:47:51;;;;;;;30.30;14.23;;;1.00;99.90;;;;;;5038192;28;20026;-86
2022/03/09 03:50:18;;;;;;;32.17;13.95;;;1.00;99.90;;;;;;5019478;28;20033;-87
2022/03/09 03:52:44;;;;;;;25.83;12.45;;;1.00;99.90;;;;;;5020781;28;20050;-86
2022/03/09 03:55:10;;;;;;;31.35;14.18;;;1.00;99.90;;;;;;5038803;28;20025;-87
2022/03/09 03:57:36;;;;;;;29.30;13.70;;;1.00;99.90;;;;;;5033466;28;20041;-86
2022/03/09 04:00:03;;;;;;;26.75;13.52;;;0.90;99.90;;;;;;5035243;28;20022;-87
2022/03/09 04:02:30;;;;;;;25.30;13.35;;;1.00;99.90;;;;;;5039923;28;20044;-84
2022/03/09 04:04:55;;;;;;;33.72;14.30;;;1.00;99.90;;;;;;5041310;28;20018;-85
2022/03/09 04:07:21;;;;;;;28.83;14.20;;;1.00;99.90;;;;;;5100164;22;20118;-82
2022/03/09 04:09:47;;;;;;;25.70;12.90;;;1.00;99.90;;;;;;5101076;28;20016;-84
2022/03/09 04:12:13;;;;;;;27.70;13.10;;;1.00;99.90;;;;;;5100272;28;20120;-83
2022/03/09 04:14:39;;;;;;;22.05;12.23;;;1.00;99.90;;;;;;5099441;28;20514;-86
2022/03/09 04:17:04;;;;;;;27.05;11.95;;;1.00;99.90;;;;;;5066899;28;20092;-85
2022/03/09 04:19:30;;;;;;;26.98;12.68;;;1.00;99.90;;;;;;5080067;28;20023;-84
2022/03/09 04:21:56;;;;;;;26.27;12.35;;;1.10;99.90;;;;;;5062996;28;20080;-83
2022/03/09 04:24:22;;;;;;;22.25;11.60;;;1.10;99.90;;;;;;5080668;28;20021;-83
2022/03/09 04:26:48;;;;;;;24.80;12.63;;;1.10;99.90;;;;;;5080347;28;20029;-84
2022/03/09 04:29:14;;;;;;;23.17;11.77;;;1.10;99.90;;;;;;5062915;28;20025;-82
2022/03/09 04:31:40;;;;;;;25.00;11.27;;;1.10;99.90;;;;;;5058392;28;20056;-85
2022/03/09 04:34:06;;;;;;;35.10;14.90;;;1.10;99.90;;;;;;5070966;28;20085;-86
2022/03/09 04:36:32;;;;;;;26.85;11.18;;;1.10;99.90;;;;;;5070598;28;20485;-84
2022/03/09 04:38:58;;;;;;;25.42;11.40;;;1.10;99.90;;;;;;5069393;28;20028;-85
2022/03/09 04:41:25;;;;;;;21.65;11.25;;;1.20;99.90;;;;;;5071906;28;20025;-85
2022/03/09 04:43:52;;;;;;;21.63;11.00;;;1.20;99.90;;;;;;5057218;28;20024;-87
2022/03/09 04:46:18;;;;;;;24.52;11.73;;;1.20;99.90;;;;;;5077323;28;20025;-85
2022/03/09 04:48:44;;;;;;;30.27;11.52;;;1.20;99.90;;;;;;5076305;28;20039;-84
2022/03/09 04:51:10;;;;;;;22.08;12.63;;;1.20;99.90;;;;;;5073864;28;20029;-84
2022/03/09 04:53:36;;;;;;;28.30;11.40;;;1.20;99.90;;;;;;5077618;28;20009;-84
2022/03/09 04:56:03;;;;;;;24.13;11.82;;;1.20;99.90;;;;;;5061824;28;20080;-84
2022/03/09 04:58:29;;;;;;;25.58;12.10;;;1.20;99.90;;;;;;5062106;28;20009;-84
2022/03/09 05:00:55;;;;;;;22.92;11.27;;;1.20;99.90;;;;;;5061629;28;20104;-85
2022/03/09 05:03:20;;;;;;;21.90;11.10;;;1.30;99.90;;;;;;5061233;28;20017;-85
2022/03/09 05:05:46;;;;;;;23.00;10.90;;;1.30;99.90;;;;;;5061406;28;20041;-86
2022/03/09 05:08:12;;;;;;;27.52;11.18;;;1.30;99.90;;;;;;5061845;28;20032;-84
2022/03/09 05:10:39;;;;;;;24.52;11.27;;;1.30;99.90;;;;;;5051521;28;20033;-84
2022/03/09 05:13:05;;;;;;;32.78;11.35;;;1.30;99.90;;;;;;5072205;28;20044;-86
2022/03/09 05:15:31;;;;;;;25.63;11.40;;;1.20;99.90;;;;;;5060207;28;20045;-84
2022/03/09 05:17:58;;;;;;;24.48;11.88;;;1.20;99.90;;;;;;5078268;28;20029;-84
2022/03/09 05:20:24;;;;;;;31.00;12.35;;;1.20;99.90;;;;;;5078257;28;20051;-84
2022/03/09 05:22:51;;;;;;;28.42;12.20;;;1.20;99.90;;;;;;5059538;28;20033;-83
2022/03/09 05:25:19;;;;;;;32.50;12.10;;;1.20;99.90;;;;;;5075147;28;20055;-86
2022/03/09 05:27:45;;;;;;;25.75;11.95;;;1.20;99.90;;;;;;5072126;28;20032;-86
2022/03/09 05:30:12;;;;;;;28.05;12.43;;;1.10;99.90;;;;;;5076155;28;20112;-86
2022/03/09 05:32:39;;;;;;;26.23;12.65;;;1.10;99.90;;;;;;5073796;28;20028;-86
2022/03/09 05:35:06;;;;;;;24.23;12.32;;;1.20;99.90;;;;;;5076732;28;20044;-87
2022/03/09 05:37:39;;;;;;;27.60;12.70;;;1.20;99.90;;;;;;5070541;28;20029;-86
2022/03/09 05:40:06;;;;;;;27.50;13.20;;;1.20;99.90;;;;;;5048024;28;20036;-87
2022/03/09 05:42:32;;;;;;;28.58;12.93;;;1.20;99.90;;;;;;5051267;28;20025;-86
2022/03/09 05:44:58;;;;;;;26.27;12.93;;;1.20;99.90;;;;;;5052140;28;20040;-86
2022/03/09 05:47:24;;;;;;;26.52;12.38;;;1.20;99.90;;;;;;5070150;28;20033;-86
2022/03/09 05:49:50;;;;;;;25.88;12.38;;;1.20;99.90;;;;;;5068139;28;20119;-86
2022/03/09 05:52:16;;;;;;;27.67;12.93;;;1.30;99.90;;;;;;5067630;28;20077;-87
2022/03/09 05:54:41;;;;;;;29.60;13.07;;;1.30;99.90;;;;;;5067350;28;20052;-87
2022/03/09 05:57:07;;;;;;;38.30;12.32;;;1.30;99.90;;;;;;5066427;28;20060;-86
2022/03/09 05:59:33;;;;;;;35.42;12.35;;;1.50;99.90;;;;;;5063648;28;20033;-86
2022/03/09 06:01:59;;;;;;;33.95;11.48;;;1.60;99.90;;;;;;5063022;28;20051;-86
2022/03/09 06:04:25;;;;;;;32.63;11.52;;;1.70;99.90;;;;;;5063777;28;20037;-86
2022/03/09 06:06:51;;;;;;;28.52;11.95;;;1.90;99.90;;;;;;5045827;28;20110;-86
2022/03/09 06:09:17;;;;;;;28.33;11.50;;;2.00;99.60;;;;;;5065155;28;20056;-87
2022/03/09 06:11:43;;;;;;;27.77;11.27;;;2.10;99.30;;;;;;5050162;28;20046;-86
2022/03/09 06:14:09;;;;;;;36.58;12.13;;;2.20;98.60;;;;;;5032229;28;20028;-87
2022/03/09 06:16:35;;;;;;;35.58;12.00;;;2.40;98.30;;;;;;5040714;28;20029;-88
2022/03/09 06:19:00;;;;;;;33.88;11.57;;;2.50;97.90;;;;;;5059890;28;20029;-89
2022/03/09 06:21:26;;;;;;;38.97;11.40;;;2.60;97.50;;;;;;5078262;28;20013;-89
2022/03/09 06:23:52;;;;;;;24.75;10.70;;;2.70;97.50;;;;;;5078531;28;20086;-89
2022/03/09 06:26:18;;;;;;;32.72;11.52;;;2.90;97.20;;;;;;5060737;28;20021;-89
2022/03/09 06:28:44;;;;;;;24.27;10.55;;;3.00;97.10;;;;;;5060562;28;20287;-87
2022/03/09 06:31:09;;;;;;;29.48;10.10;;;3.10;96.70;;;;;;5077515;28;20048;-85
2022/03/09 06:33:35;;;;;;;24.95;10.40;;;3.30;95.90;;;;;;5059880;28;20040;-87
2022/03/09 06:36:01;;;;;;;29.58;11.25;;;3.30;95.30;;;;;;5058498;28;20028;-88
2022/03/09 06:38:28;;;;;;;23.23;10.05;;;3.50;95.30;;;;;;5066362;28;20032;-87
2022/03/09 06:40:54;;;;;;;25.27;9.77;;;3.60;94.80;;;;;;5049222;28;20032;-87
2022/03/09 06:43:20;;;;;;;27.15;10.35;;;3.70;94.40;;;;;;5065660;28;20032;-88
2022/03/09 06:45:46;;;;;;;21.55;11.07;;;3.90;94.40;;;;;;5064078;28;20035;-86
2022/03/09 06:48:13;;;;;;;23.77;10.07;;;4.00;93.80;;;;;;5019789;28;20038;-87
2022/03/09 06:50:38;;;;;;;27.50;10.45;;;4.10;93.80;;;;;;5063084;28;20032;-87
2022/03/09 06:53:05;;;;;;;25.15;10.70;;;4.20;93.50;;;;;;5060829;28;20471;-88
2022/03/09 06:55:31;;;;;;;24.10;10.15;;;4.40;93.00;;;;;;5041486;28;20047;-88
2022/03/09 06:57:57;;;;;;;24.23;11.07;;;4.60;92.70;;;;;;5047326;28;20024;-87
2022/03/09 07:00:23;;;;;;;21.92;10.52;;;4.70;92.60;;;;;;5045661;28;20485;-88
2022/03/09 07:02:49;;;;;;;23.73;10.88;;;4.80;92.20;;;;;;5043955;28;20090;-87
2022/03/09 07:05:15;;;;;;;26.83;10.73;;;5.00;92.10;;;;;;5049765;28;20048;-87
2022/03/09 07:07:41;;;;;;;23.60;10.38;;;5.30;91.80;;;;;;5052393;28;20033;-89
2022/03/09 07:10:11;;;;;;;24.13;9.90;;;5.50;91.20;;;;;;5047649;28;20025;-89
2022/03/09 07:12:38;;;;;;;19.00;9.88;;;5.60;90.80;;;;;;5067732;28;20039;-87
2022/03/09 07:15:04;;;;;;;22.85;10.43;;;5.80;90.60;;;;;;5072030;28;20076;-87
2022/03/09 07:17:30;;;;;;;27.15;11.05;;;5.80;90.40;;;;;;5071882;28;20024;-87
2022/03/09 07:19:56;;;;;;;29.80;10.10;;;5.90;90.20;;;;;;5074709;28;20025;-87
2022/03/09 07:22:23;;;;;;;20.02;9.90;;;6.10;90.10;;;;;;5073966;28;20040;-87
2022/03/09 07:24:48;;;;;;;23.55;10.75;;;6.20;89.90;;;;;;5054209;28;20021;-89
2022/03/09 07:27:14;;;;;;;19.30;10.68;;;6.20;89.70;;;;;;5054974;28;20080;-88
2022/03/09 07:29:41;;;;;;;27.65;11.18;;;6.20;89.30;;;;;;5052080;28;20021;-88
2022/03/09 07:32:08;;;;;;;26.63;11.07;;;6.20;89.50;;;;;;5046145;28;20043;-87
2022/03/09 07:34:34;;;;;;;27.00;11.80;;;6.20;91.10;;;;;;5062878;28;20036;-88
2022/03/09 07:37:00;;;;;;;23.38;11.80;;;6.10;91.60;;;;;;5024466;28;20072;-88
2022/03/09 07:39:27;;;;;;;22.95;10.98;;;6.00;92.00;;;;;;5023376;28;20013;-86
2022/03/09 07:41:55;;;;;;;26.45;11.65;;;6.00;91.60;;;;;;5060143;28;20041;-89
2022/03/09 07:44:22;;;;;;;20.13;10.75;;;6.10;92.10;;;;;;5024916;28;20021;-88
2022/03/09 07:46:49;;;;;;;30.20;11.52;;;6.30;91.90;;;;;;5043405;28;20396;-87
2022/03/09 07:49:16;;;;;;;23.23;11.45;;;6.50;91.30;;;;;;5045057;28;20017;-88
2022/03/09 07:51:43;;;;;;;27.48;11.80;;;6.50;91.70;;;;;;5048122;28;20032;-87
2022/03/09 07:54:09;;;;;;;20.52;11.73;;;6.50;91.30;;;;;;5047305;28;20021;-89
2022/03/09 07:56:36;;;;;;;24.25;12.18;;;6.70;91.30;;;;;;5061671;28;20473;-89
2022/03/09 07:59:06;;;;;;;21.23;11.02;;;6.90;90.70;;;;;;5026436;28;20492;-88
2022/03/09 08:01:32;;;;;;;26.98;11.77;;;7.00;90.50;;;;;;5024823;28;20073;-88
2022/03/09 08:03:58;;;;;;;24.38;11.38;;;7.20;90.00;;;;;;5044208;28;20032;-87
2022/03/09 08:06:24;;;;;;;24.60;10.90;;;7.30;90.10;;;;;;5050115;28;20044;-86
2022/03/09 08:08:49;;;;;;;23.98;10.85;;;7.50;88.50;;;;;;5053181;28;20025;-86
2022/03/09 08:11:15;;;;;;;25.80;11.23;;;7.50;85.90;;;;;;5036440;28;20087;-86
2022/03/09 08:13:41;;;;;;;18.92;10.45;;;7.50;85.50;;;;;;5029942;28;20093;-86
2022/03/09 08:16:08;;;;;;;21.00;10.75;;;7.40;85.30;;;;;;5045582;28;20055;-85
2022/03/09 08:18:34;;;;;;;21.35;10.68;;;7.30;85.60;;;;;;5045396;28;20029;-87
2022/03/09 08:21:00;;;;;;;22.25;10.00;;;7.20;85.50;;;;;;5044700;28;20021;-86
2022/03/09 08:23:26;;;;;;;20.88;10.35;;;7.20;85.50;;;;;;5051573;28;20021;-87
2022/03/09 08:25:52;;;;;;;26.17;11.20;;;7.20;85.40;;;;;;5043527;28;20374;-87
2022/03/09 08:28:19;;;;;;;22.90;11.23;;;7.10;85.60;;;;;;5047130;28;20037;-87
2022/03/09 08:30:46;;;;;;;17.40;10.30;;;7.10;85.30;;;;;;5058077;28;20152;-86
2022/03/09 08:33:12;;;;;;;20.35;10.02;;;7.10;85.40;;;;;;5059566;28;20077;-86
2022/03/09 08:35:38;;;;;;;30.70;12.27;;;7.20;85.10;;;;;;5056114;28;20056;-87
2022/03/09 08:38:04;;;;;;;22.20;10.93;;;7.30;84.80;;;;;;5036354;28;20047;-88
2022/03/09 08:40:30;;;;;;;21.40;10.80;;;7.50;84.30;;;;;;5047905;28;20033;-88
2022/03/09 08:42:56;;;;;;;21.48;10.27;;;7.60;84.00;;;;;;5047401;28;20497;-87
2022/03/09 08:45:23;;;;;;;25.25;11.43;;;7.70;83.90;;;;;;5065610;28;20025;-88
2022/03/09 08:47:49;;;;;;;25.63;11.35;;;7.70;83.50;;;;;;5030543;28;20027;-89
2022/03/09 08:50:16;;;;;;;25.08;12.52;;;7.80;83.60;;;;;;5049203;28;20041;-89
2022/03/09 08:52:42;;;;;;;20.35;10.95;;;7.90;83.50;;;;;;5048483;28;20033;-87
2022/03/09 08:55:09;;;;;;;22.27;11.55;;;8.10;83.30;;;;;;5048035;28;20021;-89
2022/03/09 08:57:35;;;;;;;25.08;11.35;;;8.20;82.70;;;;;;5048481;28;20063;-89
2022/03/09 09:00:03;;;;;;;23.38;11.13;;;8.30;82.60;;;;;;5054875;28;20032;-89
2022/03/09 09:02:30;;;;;;;25.52;11.60;;;8.20;82.60;;;;;;5061958;28;20043;-89
2022/03/09 09:04:56;;;;;;;23.65;11.80;;;8.30;82.30;;;;;;5062884;28;20044;-90
2022/03/09 09:07:22;;;;;;;20.35;11.15;;;8.40;82.10;;;;;;5046161;28;20913;-90
2022/03/09 09:09:49;;;;;;;19.63;10.57;;;8.80;81.70;;;;;;5045846;28;20033;-90
2022/03/09 09:12:15;;;;;;;22.27;11.43;;;9.20;80.80;;;;;;5061714;28;20126;-89
2022/03/09 09:14:41;;;;;;;18.55;9.95;;;9.80;79.20;;;;;;5061123;28;20110;-90
2022/03/09 09:17:07;;;;;;;22.30;10.63;;;10.30;78.20;;;;;;5059780;28;20089;-88
2022/03/09 09:19:34;;;;;;;21.17;10.35;;;10.90;76.60;;;;;;5060628;28;20037;-90
2022/03/09 09:22:01;;;;;;;18.27;11.20;;;11.30;74.80;;;;;;5052627;28;20032;-90
2022/03/09 09:24:27;;;;;;;17.35;10.02;;;11.60;73.70;;;;;;5049397;28;20498;-88
2022/03/09 09:26:53;;;;;;;18.05;9.85;;;11.90;72.60;;;;;;5049137;28;20077;-89
2022/03/09 09:29:19;;;;;;;24.38;10.77;;;11.60;71.60;;;;;;5056472;28;20032;-89
2022/03/09 09:31:48;;;;;;;20.27;10.43;;;11.00;72.30;;;;;;5039199;28;20042;-88
2022/03/09 09:34:16;;;;;;;19.13;10.18;;;10.60;73.00;;;;;;5055171;28;20044;-87
2022/03/09 09:36:45;;;;;;;22.65;9.90;;;10.60;73.00;;;;;;5076553;28;20036;-87
2022/03/09 09:39:15;;;;;;;17.60;8.90;;;10.50;73.00;;;;;;5054003;28;20028;-87
2022/03/09 09:41:47;;;;;;;22.77;10.18;;;10.50;73.30;;;;;;5063068;28;20609;-88
2022/03/09 09:44:13;;;;;;;20.48;9.32;;;10.50;73.30;;;;;;5065620;28;20021;-89
2022/03/09 09:46:41;;;;;;;16.90;9.20;;;10.60;73.30;;;;;;5062746;28;20392;-89
2022/03/09 09:49:10;;;;;;;22.00;9.27;;;10.60;73.80;;;;;;5062586;28;20389;-89
2022/03/09 09:51:39;;;;;;;19.38;9.57;;;10.60;73.30;;;;;;5058101;28;20033;-89
2022/03/09 09:54:05;;;;;;;21.33;9.80;;;10.60;73.50;;;;;;5032012;28;20030;-90
2022/03/09 09:56:36;;;;;;;16.10;8.95;;;10.70;72.50;;;;;;5058288;28;20028;-90
2022/03/09 09:59:03;;;;;;;22.27;10.25;;;10.70;72.70;;;;;;5044620;28;20086;-89
2022/03/09 10:01:29;;;;;;;21.02;8.93;;;10.80;72.90;;;;;;5025738;28;20032;-89
2022/03/09 10:03:55;;;;;;;18.08;9.32;;;11.00;72.10;;;;;;5055978;28;20029;-89
2022/03/09 10:06:21;;;;;;;26.15;10.15;;;11.10;71.70;;;;;;5036593;23;20045;-84
2022/03/09 10:09:19;;;;;;;21.85;9.82;;;11.20;71.70;;;;;;5035603;28;20364;-85
2022/03/09 10:11:51;;;;;;;13.52;8.55;;;11.50;71.20;;;;;;4998897;28;20033;-83
2022/03/09 10:14:47;;;;;;;25.58;8.32;;;11.50;71.20;;;;;;5033392;28;20025;-85
2022/03/09 10:17:25;;;;;;;19.15;7.93;;;11.70;71.30;;;;;;5036585;28;20081;-84
2022/03/09 10:20:09;;;;;;;12.77;7.43;;;11.60;72.10;;;;;;5018550;28;20018;-84
2022/03/09 10:22:46;;;;;;;14.68;7.47;;;11.60;72.30;;;;;;5051265;28;20033;-84
2022/03/09 10:25:13;;;;;;;15.48;7.05;;;11.60;72.00;;;;;;5051011;28;20064;-82
2022/03/09 10:27:42;;;;;;;15.90;7.57;;;11.60;71.40;;;;;;5031196;28;20089;-84
2022/03/09 10:30:16;;;;;;;32.20;15.48;;;11.70;71.50;;;;;;5033607;28;20172;-85
2022/03/09 10:32:52;;;;;;;17.95;8.05;;;11.70;71.70;;;;;;5047612;28;20617;-85
2022/03/09 10:35:40;;;;;;;16.38;8.68;;;11.80;71.40;;;;;;5034852;28;20042;-89
2022/03/09 10:38:22;;;;;;;12.02;6.90;;;12.00;71.10;;;;;;5011134;28;20022;-88
2022/03/09 10:40:50;;;;;;;16.50;7.63;;;12.10;71.00;;;;;;5049831;28;20025;-88
2022/03/09 10:43:29;;;;;;;11.55;7.03;;;12.30;70.50;;;;;;5009442;28;20013;-88
2022/03/09 10:46:09;;;;;;;14.80;7.65;;;12.70;69.90;;;;;;5030482;28;20022;-90
2022/03/09 10:48:57;;;;;;;18.02;7.10;;;13.10;69.80;;;;;;5039499;28;20025;-87
2022/03/09 10:51:34;;;;;;;21.05;7.78;;;13.00;69.10;;;;;;5055257;28;20033;-88
2022/03/09 10:54:03;;;;;;;19.83;7.00;;;13.10;69.10;;;;;;5051088;28;20029;-84
2022/03/09 10:56:29;;;;;;;14.10;6.32;;;13.80;68.60;;;;;;5047968;28;20017;-87
2022/03/09 10:58:55;;;;;;;15.30;6.75;;;15.00;67.00;;;;;;5050678;28;20010;-87
2022/03/09 11:01:23;;;;;;;11.63;7.20;;;16.20;64.40;;;;;;5033059;28;20021;-87
2022/03/09 11:03:49;;;;;;;11.18;5.95;;;16.50;63.20;;;;;;5033549;28;20022;-85
2022/03/09 11:06:17;;;;;;;7.82;5.55;;;16.10;63.80;;;;;;5014994;28;20103;-85
2022/03/09 11:08:44;;;;;;;10.57;5.85;;;16.00;63.90;;;;;;5035629;28;20030;-86
2022/03/09 11:11:10;;;;;;;10.50;5.70;;;16.10;63.80;;;;;;5036226;28;20052;-87
2022/03/09 11:13:38;;;;;;;8.52;5.78;;;16.30;63.70;;;;;;5054795;28;20043;-88
2022/03/09 11:16:06;;;;;;;12.52;6.80;;;16.80;62.70;;;;;;5019666;28;20122;-87
2022/03/09 11:18:33;;;;;;;10.55;6.47;;;17.00;61.80;;;;;;5039311;28;20057;-87
2022/03/09 11:21:05;;;;;;;13.38;7.60;;;17.60;61.00;;;;;;5035094;28;20021;-87
2022/03/09 11:23:33;;;;;;;13.88;6.10;;;18.60;59.60;;;;;;5052763;28;20036;-89
2022/03/09 11:26:23;;;;;;;16.35;5.70;;;20.20;57.50;;;;;;5053765;28;20286;-87
2022/03/09 11:29:03;;;;;;;14.85;7.32;;;21.70;54.70;;;;;;5042992;28;20053;-87
2022/03/09 11:31:51;;;;;;;12.90;6.57;;;22.50;52.40;;;;;;5060291;28;20052;-87
2022/03/09 11:34:30;;;;;;;9.68;5.00;;;23.70;50.90;;;;;;5043329;28;20025;-86
2022/03/09 11:37:04;;;;;;;12.02;5.53;;;24.70;49.00;;;;;;5060135;28;20025;-85
2022/03/09 11:39:30;;;;;;;9.43;6.00;;;24.90;48.30;;;;;;5059610;28;20045;-86
2022/03/09 11:42:21;;;;;;;9.68;6.28;;;25.00;47.10;;;;;;5041621;28;20080;-88
2022/03/09 11:45:14;;;;;;;11.75;6.95;;;25.50;46.80;;;;;;5020885;28;20037;-87
2022/03/09 11:48:05;;;;;;;13.00;7.53;;;25.30;46.30;;;;;;5040505;28;20021;-88
2022/03/09 11:50:57;;;;;;;9.00;6.43;;;25.40;45.60;;;;;;5037565;28;20037;-86
2022/03/09 11:53:43;;;;;;;9.15;6.30;;;26.20;45.20;;;;;;5055100;28;20041;-86
2022/03/09 11:56:31;;;;;;;13.75;4.75;;;26.10;44.70;;;;;;5055017;28;20029;-88
2022/03/09 11:59:25;;;;;;;10.10;4.97;;;25.60;45.10;;;;;;5051422;28;20113;-88
2022/03/09 12:04:53;;;;;;;10.23;6.38;;;26.00;44.20;;;;;;5019778;28;20033;-88
2022/03/09 12:07:31;;;;;;;9.68;5.50;;;24.60;45.40;;;;;;5029973;28;20026;-90
2022/03/09 12:09:59;;;;;;;10.15;6.28;;;24.00;45.60;;;;;;5030228;28;20068;-82
2022/03/09 12:12:27;;;;;;;13.63;5.72;;;23.90;45.90;;;;;;5036622;28;20025;-84
2022/03/09 12:15:05;;;;;;;8.00;5.47;;;24.50;45.40;;;;;;5034567;28;20030;-86
2022/03/09 12:17:39;;;;;;;12.05;6.05;;;24.40;45.20;;;;;;5028659;28;20026;-87
2022/03/09 12:20:30;;;;;;;11.90;5.88;;;24.60;45.10;;;;;;5045895;28;20025;-85
2022/03/09 12:22:55;;;;;;;12.75;5.97;;;25.40;44.80;;;;;;5025686;28;20057;-84
2022/03/09 12:25:40;;;;;;;11.40;6.53;;;25.50;44.00;;;;;;5037910;28;20045;-86
2022/03/09 12:28:24;;;;;;;11.30;5.75;;;26.60;43.40;;;;;;5056912;28;20042;-85
2022/03/09 12:31:10;;;;;;;11.07;6.70;;;26.70;43.20;;;;;;5040456;28;20093;-86
2022/03/09 12:33:38;;;;;;;9.40;5.63;;;27.10;43.00;;;;;;5057607;28;20029;-86
2022/03/09 12:36:19;;;;;;;12.52;5.88;;;26.90;42.80;;;;;;5035865;28;20041;-86
2022/03/09 12:38:53;;;;;;;10.60;5.78;;;26.80;42.60;;;;;;5027759;28;20033;-85
2022/03/09 12:41:24;;;;;;;9.50;5.18;;;26.20;42.70;;;;;;5008883;28;20030;-87
2022/03/09 12:43:53;;;;;;;9.75;5.47;;;26.60;42.80;;;;;;5009605;28;20041;-85
2022/03/09 12:46:19;;;;;;;10.48;5.53;;;27.00;42.10;;;;;;5008237;28;20068;-89